createdAt,value
2019-02-21T00:02:24.543Z,14.97
2019-02-21T00:04:53.990Z,14.83
2019-02-21T00:07:23.413Z,14.87
2019-02-21T00:09:52.866Z,13.90
2019-02-21T00:12:22.300Z,14.60
2019-02-21T00:14:51.752Z,14.47
2019-02-21T00:17:21.189Z,15.33
2019-02-21T00:19:50.632Z,15.00
2019-02-21T00:22:20.060Z,14.57
2019-02-21T00:24:49.510Z,14.37
2019-02-21T00:27:18.948Z,14.20
2019-02-21T00:29:48.462Z,14.20
2019-02-21T00:32:17.886Z,14.87
2019-02-21T00:34:47.345Z,14.47
2019-02-21T00:37:16.789Z,14.53
2019-02-21T00:39:46.238Z,14.07
2019-02-21T00:42:16.000Z,13.80
2019-02-21T00:44:45.445Z,14.37
2019-02-21T00:47:14.907Z,13.93
2019-02-21T00:49:44.351Z,14.03
2019-02-21T00:52:13.785Z,14.97
2019-02-21T00:54:43.231Z,14.60
2019-02-21T00:57:12.675Z,13.57
2019-02-21T00:59:42.127Z,14.50
2019-02-21T01:02:11.550Z,15.00
2019-02-21T01:04:41.036Z,14.17
2019-02-21T01:07:10.459Z,14.33
2019-02-21T01:09:39.924Z,14.70
2019-02-21T01:12:09.339Z,14.47
2019-02-21T01:14:38.786Z,13.67
2019-02-21T01:17:08.235Z,14.77
2019-02-21T01:19:37.685Z,14.67
2019-02-21T01:22:07.197Z,14.23
2019-02-21T01:24:36.639Z,13.53
2019-02-21T01:27:06.067Z,14.27
2019-02-21T01:29:35.516Z,14.37
2019-02-21T01:32:04.949Z,14.40
2019-02-21T01:34:34.401Z,14.40
2019-02-21T01:37:03.827Z,14.20
2019-02-21T01:39:33.275Z,13.70
2019-02-21T01:42:02.703Z,13.97
2019-02-21T01:44:32.155Z,14.03
2019-02-21T01:47:01.597Z,13.30
2019-02-21T01:49:31.053Z,14.03
2019-02-21T01:52:00.489Z,13.53
2019-02-21T01:54:29.947Z,14.67
2019-02-21T01:56:59.389Z,13.53
2019-02-21T01:59:28.859Z,13.30
2019-02-21T02:01:58.298Z,13.47
2019-02-21T02:04:27.740Z,14.13
2019-02-21T02:06:57.545Z,14.33
2019-02-21T02:09:27.068Z,13.93
2019-02-21T02:11:56.510Z,14.47
2019-02-21T02:14:25.957Z,14.50
2019-02-21T02:16:55.402Z,14.23
2019-02-21T02:19:24.857Z,13.80
2019-02-21T02:21:54.288Z,13.80
2019-02-21T02:24:23.746Z,13.43
2019-02-21T02:26:53.170Z,14.33
2019-02-21T02:29:22.687Z,13.63
2019-02-21T02:31:52.146Z,14.20
2019-02-21T02:34:21.590Z,14.80
2019-02-21T02:36:51.040Z,13.83
2019-02-21T02:39:20.473Z,13.33
2019-02-21T02:41:49.926Z,13.77
2019-02-21T02:44:19.365Z,14.23
2019-02-21T02:46:48.809Z,14.20
2019-02-21T02:49:18.263Z,14.00
2019-02-21T02:51:47.711Z,13.53
2019-02-21T02:54:17.146Z,13.87
2019-02-21T02:56:46.588Z,13.30
2019-02-21T02:59:16.010Z,13.93
2019-02-21T03:01:46.801Z,14.27
2019-02-21T03:04:16.315Z,12.97
2019-02-21T03:06:45.760Z,13.33
2019-02-21T03:09:15.206Z,13.43
2019-02-21T03:11:44.730Z,14.13
2019-02-21T03:14:14.205Z,14.03
2019-02-21T03:16:43.667Z,13.80
2019-02-21T03:19:13.126Z,13.57
2019-02-21T03:21:42.564Z,14.00
2019-02-21T03:24:12.022Z,14.20
2019-02-21T03:26:41.459Z,14.27
2019-02-21T03:29:10.894Z,14.27
2019-02-21T03:31:53.364Z,14.20
2019-02-21T03:34:11.548Z,14.33
2019-02-21T03:36:41.014Z,13.50
2019-02-21T03:39:10.439Z,13.00
2019-02-21T03:41:39.895Z,14.43
2019-02-21T03:44:09.331Z,14.07
2019-02-21T03:46:38.790Z,13.83
2019-02-21T03:49:08.241Z,13.37
2019-02-21T03:51:37.664Z,14.13
2019-02-21T03:54:07.132Z,13.63
2019-02-21T03:56:36.659Z,13.70
2019-02-21T03:59:06.256Z,13.80
2019-02-21T04:01:35.778Z,14.30
2019-02-21T04:04:05.494Z,15.07
2019-02-21T04:06:34.935Z,14.20
2019-02-21T04:09:06.984Z,14.60
2019-02-21T04:11:36.437Z,14.27
2019-02-21T04:14:05.963Z,14.03
2019-02-21T04:16:35.419Z,14.23
2019-02-21T04:19:04.836Z,14.30
2019-02-21T04:21:34.282Z,14.70
2019-02-21T04:24:03.708Z,14.80
2019-02-21T04:26:33.152Z,14.67
2019-02-21T04:29:02.585Z,15.53
2019-02-21T04:31:32.031Z,14.47
2019-02-21T04:34:01.464Z,15.10
2019-02-21T04:36:30.917Z,14.30
2019-02-21T04:39:00.346Z,15.47
2019-02-21T04:41:29.790Z,14.97
2019-02-21T04:43:59.250Z,14.23
2019-02-21T04:46:28.731Z,14.90
2019-02-21T04:49:17.501Z,15.47
2019-02-21T04:55:01.268Z,14.50
2019-02-21T04:57:43.324Z,14.13
2019-02-21T05:00:32.082Z,15.10
2019-02-21T05:03:01.539Z,15.13
2019-02-21T05:05:30.985Z,14.93
2019-02-21T05:08:00.423Z,15.50
2019-02-21T05:10:29.862Z,15.60
2019-02-21T05:12:59.305Z,14.67
2019-02-21T05:15:28.742Z,15.07
2019-02-21T05:17:58.193Z,16.07
2019-02-21T05:20:27.620Z,15.23
2019-02-21T05:22:57.065Z,14.70
2019-02-21T05:25:26.502Z,15.20
2019-02-21T05:27:56.724Z,15.73
2019-02-21T05:30:26.928Z,15.30
2019-02-21T05:33:12.986Z,15.73
2019-02-21T05:35:56.265Z,15.13
2019-02-21T05:38:27.405Z,15.03
2019-02-21T05:41:04.048Z,15.07
2019-02-21T05:43:49.723Z,14.57
2019-02-21T05:46:20.791Z,14.37
2019-02-21T05:48:51.881Z,15.47
2019-02-21T05:51:25.623Z,15.73
2019-02-21T05:53:56.711Z,15.23
2019-02-21T05:56:30.635Z,15.37
2019-02-21T05:59:07.349Z,16.23
2019-02-21T06:01:56.220Z,15.10
2019-02-21T06:04:27.292Z,14.37
2019-02-21T06:07:09.793Z,14.70
2019-02-21T06:09:48.883Z,15.70
2019-02-21T06:12:36.143Z,15.37
2019-02-21T06:15:07.772Z,14.63
2019-02-21T06:17:44.842Z,16.13
2019-02-21T06:20:33.733Z,15.23
2019-02-21T06:23:04.777Z,15.10
2019-02-21T06:25:35.858Z,15.63
2019-02-21T06:28:09.584Z,14.93
2019-02-21T06:30:43.242Z,15.13
2019-02-21T06:33:11.824Z,15.83
2019-02-21T06:35:41.283Z,15.83
2019-02-21T06:38:10.723Z,15.47
2019-02-21T06:40:40.190Z,16.70
2019-02-21T06:43:09.628Z,15.07
2019-02-21T06:45:39.059Z,14.80
2019-02-21T06:48:08.501Z,15.47
2019-02-21T06:50:37.952Z,16.17
2019-02-21T06:53:07.398Z,15.07
2019-02-21T06:55:36.827Z,14.27
2019-02-21T06:58:06.341Z,14.40
2019-02-21T07:00:35.770Z,15.73
2019-02-21T07:03:15.172Z,15.30
2019-02-21T07:05:37.066Z,15.07
2019-02-21T07:08:08.774Z,15.20
2019-02-21T07:10:37.877Z,15.10
2019-02-21T07:13:07.357Z,15.33
2019-02-21T07:15:36.864Z,15.47
2019-02-21T07:18:06.341Z,15.73
2019-02-21T07:20:35.758Z,15.73
2019-02-21T07:23:05.198Z,15.07
2019-02-21T07:25:50.518Z,14.37
2019-02-21T07:28:19.551Z,14.37
2019-02-21T07:30:50.159Z,14.47
2019-02-21T07:33:28.316Z,14.23
2019-02-21T07:35:50.866Z,14.47
2019-02-21T07:38:20.317Z,14.00
2019-02-21T07:40:49.798Z,14.33
2019-02-21T07:43:20.596Z,13.57
2019-02-21T07:45:50.218Z,14.40
2019-02-21T07:48:19.657Z,14.67
2019-02-21T07:50:49.095Z,14.17
2019-02-21T07:53:18.550Z,14.50
2019-02-21T07:55:48.010Z,13.87
2019-02-21T07:58:17.450Z,14.23
2019-02-21T08:00:46.884Z,14.90
2019-02-21T08:03:16.388Z,13.90
2019-02-21T08:05:45.828Z,13.77
2019-02-21T08:08:15.269Z,13.60
2019-02-21T08:10:44.722Z,13.57
2019-02-21T08:13:14.160Z,13.70
2019-02-21T08:15:43.620Z,13.50
2019-02-21T08:18:13.067Z,13.97
2019-02-21T08:20:42.517Z,13.73
2019-02-21T08:23:11.950Z,13.50
2019-02-21T08:25:41.403Z,13.20
2019-02-21T08:28:10.849Z,13.00
2019-02-21T08:30:40.310Z,12.93
2019-02-21T08:33:13.216Z,12.83
2019-02-21T08:35:42.673Z,13.40
2019-02-21T08:38:12.304Z,12.97
2019-02-21T08:40:41.822Z,15.07
2019-02-21T08:43:11.258Z,13.83
2019-02-21T08:45:40.718Z,15.07
2019-02-21T08:48:10.208Z,14.13
2019-02-21T08:50:39.754Z,14.53
2019-02-21T08:53:09.463Z,14.63
2019-02-21T08:55:40.453Z,14.43
2019-02-21T08:58:09.969Z,14.97
2019-02-21T09:00:39.445Z,15.23
2019-02-21T09:03:08.876Z,15.43
2019-02-21T09:05:38.331Z,14.70
2019-02-21T09:08:07.774Z,15.60
2019-02-21T09:10:37.397Z,15.73
2019-02-21T09:13:06.841Z,15.90
2019-02-21T09:15:36.301Z,15.00
2019-02-21T09:18:05.739Z,15.43
2019-02-21T09:20:35.205Z,15.70
2019-02-21T09:23:04.641Z,16.40
2019-02-21T09:25:34.086Z,15.23
2019-02-21T09:28:03.539Z,15.33
2019-02-21T09:30:32.986Z,14.70
2019-02-21T09:33:02.430Z,28.37
2019-02-21T09:35:31.882Z,14.67
2019-02-21T09:38:01.331Z,18.30
2019-02-21T09:40:30.795Z,15.07
2019-02-21T09:43:00.434Z,14.67
2019-02-21T09:45:29.890Z,32.53
2019-02-21T09:47:59.348Z,15.17
2019-02-21T09:50:28.917Z,15.00
2019-02-21T09:52:58.358Z,14.20
2019-02-21T09:55:29.698Z,12.90
2019-02-21T09:57:58.994Z,13.38
2019-02-21T10:00:28.443Z,13.03
2019-02-21T10:02:57.875Z,12.85
2019-02-21T10:05:27.340Z,33.00
2019-02-21T10:07:56.804Z,12.00
2019-02-21T10:10:26.236Z,12.40
2019-02-21T10:12:55.670Z,11.03
2019-02-21T10:15:25.130Z,12.50
2019-02-21T10:17:54.565Z,12.27
2019-02-21T10:20:24.179Z,12.50
2019-02-21T10:22:53.649Z,12.47
2019-02-21T10:25:33.388Z,12.47
2019-02-21T10:28:02.832Z,12.50
2019-02-21T10:30:32.276Z,11.80
2019-02-21T10:33:01.775Z,12.80
2019-02-21T10:35:31.303Z,11.37
2019-02-21T10:38:00.739Z,10.53
2019-02-21T10:40:30.186Z,10.20
2019-02-21T10:42:59.647Z,11.00
2019-02-21T10:45:29.084Z,10.50
2019-02-21T10:47:58.568Z,12.97
2019-02-21T10:50:27.984Z,17.13
2019-02-21T10:52:57.452Z,10.57
2019-02-21T10:55:26.899Z,9.63
2019-02-21T10:57:56.354Z,9.83
2019-02-21T11:00:30.784Z,10.47
2019-02-21T11:03:00.235Z,10.77
2019-02-21T11:05:29.681Z,10.83
2019-02-21T11:07:59.149Z,10.27
2019-02-21T11:10:30.755Z,10.37
2019-02-21T11:13:00.296Z,10.77
2019-02-21T11:15:29.731Z,19.77
2019-02-21T11:17:59.191Z,14.63
2019-02-21T11:20:28.657Z,10.80
2019-02-21T11:22:58.144Z,11.70
2019-02-21T11:25:27.581Z,11.50
2019-02-21T11:27:57.075Z,10.90
2019-02-21T11:30:26.509Z,10.27
2019-02-21T11:32:55.983Z,11.80
2019-02-21T11:35:25.413Z,10.57
2019-02-21T11:37:54.975Z,10.93
2019-02-21T11:40:24.679Z,10.70
2019-02-21T11:42:54.138Z,11.30
2019-02-21T11:45:23.589Z,12.27
2019-02-21T11:47:53.059Z,12.93
2019-02-21T11:50:22.526Z,11.63
2019-02-21T11:52:52.080Z,11.63
2019-02-21T11:55:27.080Z,11.37
2019-02-21T11:57:56.670Z,11.60
2019-02-21T12:00:31.086Z,11.07
2019-02-21T12:03:01.514Z,11.43
2019-02-21T12:05:31.876Z,11.70
2019-02-21T12:08:01.753Z,10.70
2019-02-21T12:10:31.227Z,11.23
2019-02-21T12:13:00.688Z,19.03
2019-02-21T12:15:30.126Z,13.03
2019-02-21T12:17:59.596Z,11.23
2019-02-21T12:20:29.104Z,11.43
2019-02-21T12:22:58.561Z,11.50
2019-02-21T12:25:28.000Z,12.10
2019-02-21T12:27:57.460Z,11.67
2019-02-21T12:30:26.907Z,11.93
2019-02-21T12:32:56.350Z,13.17
2019-02-21T12:35:29.531Z,12.47
2019-02-21T12:37:56.990Z,12.83
2019-02-21T12:40:26.429Z,14.30
2019-02-21T12:42:55.920Z,13.53
2019-02-21T12:45:29.853Z,12.93
2019-02-21T12:47:58.377Z,13.00
2019-02-21T12:50:27.808Z,13.90
2019-02-21T12:52:57.263Z,13.60
2019-02-21T12:55:31.241Z,15.70
2019-02-21T12:57:57.935Z,14.50
2019-02-21T13:00:27.340Z,13.03
2019-02-21T13:02:56.797Z,12.57
2019-02-21T13:05:26.239Z,13.60
2019-02-21T13:07:55.704Z,12.73
2019-02-21T13:10:25.895Z,12.90
2019-02-21T13:12:55.391Z,25.50
2019-02-21T13:15:24.827Z,19.00
2019-02-21T13:17:54.303Z,13.87
2019-02-21T13:20:23.760Z,14.30
2019-02-21T13:22:53.309Z,14.43
2019-02-21T13:25:22.742Z,15.87
2019-02-21T13:27:52.182Z,13.50
2019-02-21T13:30:21.627Z,13.73
2019-02-21T13:32:51.097Z,12.97
2019-02-21T13:35:20.545Z,13.60
2019-02-21T13:37:49.991Z,14.47
2019-02-21T13:40:21.135Z,14.60
2019-02-21T13:42:50.633Z,15.03
2019-02-21T13:45:20.064Z,16.93
2019-02-21T13:47:49.532Z,16.47
2019-02-21T13:50:20.580Z,14.97
2019-02-21T13:52:50.037Z,13.07
2019-02-21T13:55:19.484Z,14.10
2019-02-21T13:57:49.836Z,13.93
2019-02-21T14:00:22.567Z,14.77
2019-02-21T14:02:52.306Z,14.57
2019-02-21T14:05:21.732Z,14.13
2019-02-21T14:07:51.193Z,14.03
2019-02-21T14:10:20.655Z,15.20
2019-02-21T14:12:50.094Z,13.63
2019-02-21T14:15:24.095Z,13.30
2019-02-21T14:17:53.541Z,12.57
2019-02-21T14:20:23.147Z,14.80
2019-02-21T14:22:52.616Z,12.80
2019-02-21T14:25:22.051Z,12.50
2019-02-21T14:27:51.547Z,12.20
2019-02-21T14:30:22.321Z,11.47
2019-02-21T14:32:51.770Z,10.77
2019-02-21T14:35:21.229Z,11.73
2019-02-21T14:37:50.680Z,9.93
2019-02-21T14:40:20.146Z,10.27
2019-02-21T14:42:49.616Z,8.77
2019-02-21T14:45:25.446Z,9.47
2019-02-21T14:47:55.467Z,8.67
2019-02-21T14:50:24.997Z,7.73
2019-02-21T14:52:56.420Z,7.40
2019-02-21T14:55:25.856Z,7.97
2019-02-21T14:57:55.319Z,7.43
2019-02-21T15:00:29.487Z,6.90
2019-02-21T15:02:59.129Z,6.20
2019-02-21T15:05:28.566Z,6.50
2019-02-21T15:07:58.054Z,6.27
2019-02-21T15:10:27.490Z,6.13
2019-02-21T15:12:56.954Z,6.40
2019-02-21T15:15:27.594Z,6.00
2019-02-21T15:18:06.983Z,5.87
2019-02-21T15:20:36.150Z,5.53
2019-02-21T15:22:59.399Z,5.50
2019-02-21T15:25:28.871Z,5.83
2019-02-21T15:27:58.294Z,6.97
2019-02-21T15:30:27.763Z,6.93
2019-02-21T15:32:57.220Z,6.40
2019-02-21T15:35:26.690Z,6.73
2019-02-21T15:37:56.200Z,6.83
2019-02-21T15:40:25.687Z,7.03
2019-02-21T15:42:55.121Z,6.57
2019-02-21T15:45:27.949Z,7.67
2019-02-21T15:47:57.430Z,6.80
2019-02-21T15:50:26.862Z,7.07
2019-02-21T15:52:57.807Z,7.33
2019-02-21T15:55:27.371Z,10.17
2019-02-21T15:58:03.944Z,10.53
2019-02-21T16:00:27.976Z,6.77
2019-02-21T16:02:57.430Z,7.03
2019-02-21T16:05:26.886Z,18.03
2019-02-21T16:07:56.345Z,7.50
2019-02-21T16:10:29.175Z,6.63
2019-02-21T16:12:59.180Z,6.80
2019-02-21T16:15:28.939Z,7.03
2019-02-21T16:17:58.449Z,6.43
2019-02-21T16:20:27.954Z,6.50
2019-02-21T16:22:57.432Z,6.20
2019-02-21T16:25:32.814Z,7.07
2019-02-21T16:28:02.229Z,8.47
2019-02-21T16:30:31.755Z,6.87
2019-02-21T16:33:01.229Z,7.20
2019-02-21T16:35:30.660Z,8.43
2019-02-21T16:38:00.113Z,10.63
2019-02-21T16:40:29.580Z,8.87
2019-02-21T16:42:59.024Z,8.73
2019-02-21T16:45:39.986Z,8.60
2019-02-21T16:47:59.626Z,9.57
2019-02-21T16:50:30.254Z,8.10
2019-02-21T16:52:59.789Z,7.70
2019-02-21T16:55:29.247Z,8.00
2019-02-21T16:57:58.693Z,7.97
2019-02-21T17:00:42.174Z,7.90
2019-02-21T17:03:18.705Z,7.77
2019-02-21T17:06:07.509Z,7.50
2019-02-21T17:08:56.297Z,7.70
2019-02-21T17:11:45.103Z,8.57
2019-02-21T17:14:33.924Z,7.87
2019-02-21T17:17:22.689Z,8.40
2019-02-21T17:19:52.150Z,8.00
2019-02-21T17:22:21.586Z,7.17
2019-02-21T17:25:31.311Z,7.30
2019-02-21T17:28:20.839Z,7.80
2019-02-21T17:30:50.865Z,7.53
2019-02-21T17:33:20.773Z,8.00
2019-02-21T17:35:50.798Z,6.97
2019-02-21T17:38:20.816Z,7.43
2019-02-21T17:40:50.838Z,8.13
2019-02-21T17:43:20.948Z,7.60
2019-02-21T17:45:50.975Z,7.30
2019-02-21T17:48:20.880Z,7.87
2019-02-21T17:50:50.986Z,8.13
2019-02-21T17:53:20.925Z,8.17
2019-02-21T17:55:50.932Z,9.10
2019-02-21T17:58:20.954Z,8.70
2019-02-21T18:00:50.982Z,8.70
2019-02-21T18:03:23.760Z,9.00
2019-02-21T18:05:55.987Z,9.43
2019-02-21T18:08:25.535Z,10.07
2019-02-21T18:10:55.553Z,10.10
2019-02-21T18:13:25.559Z,10.57
2019-02-21T18:15:55.474Z,10.57
2019-02-21T18:18:25.390Z,9.83
2019-02-21T18:20:55.420Z,10.57
2019-02-21T18:23:25.330Z,11.77
2019-02-21T18:26:02.714Z,11.00
2019-02-21T18:28:32.745Z,10.43
2019-02-21T18:31:02.868Z,12.03
2019-02-21T18:33:32.886Z,12.43
2019-02-21T18:36:02.909Z,12.33
2019-02-21T18:38:33.316Z,12.27
2019-02-21T18:41:03.231Z,12.50
2019-02-21T18:43:33.045Z,13.27
2019-02-21T18:46:03.178Z,12.67
2019-02-21T18:48:33.079Z,12.43
2019-02-21T18:51:03.109Z,12.50
2019-02-21T18:53:33.113Z,12.20
2019-02-21T18:56:02.928Z,13.10
2019-02-21T18:58:32.844Z,12.30
2019-02-21T19:01:02.966Z,12.03
2019-02-21T19:03:32.981Z,12.67
2019-02-21T19:06:03.036Z,13.33
2019-02-21T19:08:32.560Z,12.33
2019-02-21T19:11:02.142Z,13.70
2019-02-21T19:13:31.730Z,13.27
2019-02-21T19:16:01.340Z,14.23
2019-02-21T19:18:30.884Z,13.80
2019-02-21T19:21:00.392Z,14.13
2019-02-21T19:23:29.859Z,13.97
2019-02-21T19:25:59.510Z,14.77
2019-02-21T19:28:29.047Z,14.77
2019-02-21T19:31:09.347Z,15.73
2019-02-21T19:33:39.212Z,16.23
2019-02-21T19:36:08.788Z,15.63
2019-02-21T19:38:38.782Z,16.00
2019-02-21T19:41:08.982Z,14.83
2019-02-21T19:43:38.640Z,15.67
2019-02-21T19:46:08.174Z,16.13
2019-02-21T19:48:38.112Z,17.03
2019-02-21T19:51:07.832Z,16.87
2019-02-21T19:53:37.328Z,17.90
2019-02-21T19:56:07.630Z,16.97
2019-02-21T19:58:37.207Z,17.53
2019-02-21T20:01:06.972Z,17.50
2019-02-21T20:03:36.530Z,17.63
2019-02-21T20:06:06.275Z,17.90
2019-02-21T20:08:35.809Z,18.33
2019-02-21T20:11:06.240Z,17.10
2019-02-21T20:13:36.245Z,15.90
2019-02-21T20:16:06.466Z,16.23
2019-02-21T20:18:35.954Z,16.63
2019-02-21T20:21:05.549Z,15.50
2019-02-21T20:23:34.999Z,16.03
2019-02-21T20:26:04.556Z,17.43
2019-02-21T20:28:34.066Z,16.63
2019-02-21T20:31:03.576Z,17.13
2019-02-21T20:33:33.121Z,17.17
2019-02-21T20:36:02.599Z,17.03
2019-02-21T20:38:32.533Z,17.00
2019-02-21T20:41:02.130Z,16.67
2019-02-21T20:43:31.646Z,15.30
2019-02-21T20:46:01.139Z,15.87
2019-02-21T20:48:31.069Z,16.87
2019-02-21T20:51:01.732Z,17.47
2019-02-21T20:53:31.378Z,17.37
2019-02-21T20:56:00.917Z,16.20
2019-02-21T20:58:30.376Z,16.47
2019-02-21T21:00:59.855Z,17.30
2019-02-21T21:03:29.927Z,16.80
2019-02-21T21:05:59.414Z,17.13
2019-02-21T21:08:28.909Z,16.90
2019-02-21T21:10:58.398Z,17.13
2019-02-21T21:13:27.918Z,16.87
2019-02-21T21:15:57.410Z,16.40
2019-02-21T21:18:26.935Z,17.33
2019-02-21T21:20:56.404Z,16.60
2019-02-21T21:23:26.518Z,16.40
2019-02-21T21:25:56.537Z,17.00
2019-02-21T21:28:26.160Z,16.87
2019-02-21T21:30:55.603Z,16.97
2019-02-21T21:33:25.159Z,17.67
2019-02-21T21:35:54.615Z,18.00
2019-02-21T21:38:24.562Z,17.23
2019-02-21T21:40:54.122Z,17.37
2019-02-21T21:43:23.608Z,17.07
2019-02-21T21:45:53.150Z,17.67
2019-02-21T21:48:22.661Z,16.80
2019-02-21T21:50:52.155Z,18.30
2019-02-21T21:53:21.644Z,17.43
2019-02-21T21:55:51.127Z,16.13
2019-02-21T21:58:21.159Z,16.77
2019-02-21T22:00:51.157Z,17.70
2019-02-21T22:03:20.719Z,18.53
2019-02-21T22:05:50.696Z,17.73
2019-02-21T22:08:20.154Z,17.57
2019-02-21T22:10:49.646Z,17.97
2019-02-21T22:13:19.170Z,17.13
2019-02-21T22:15:48.687Z,17.77
2019-02-21T22:18:18.176Z,17.57
2019-02-21T22:20:47.655Z,17.20
2019-02-21T22:23:17.161Z,15.97
2019-02-21T22:25:46.660Z,17.23
2019-02-21T22:28:16.228Z,17.47
2019-02-21T22:30:45.735Z,17.00
2019-02-21T22:33:15.654Z,17.23
2019-02-21T22:35:45.661Z,17.60
2019-02-21T22:38:15.090Z,16.67
2019-02-21T22:40:44.567Z,15.93
2019-02-21T22:43:14.037Z,14.97
2019-02-21T22:45:44.497Z,16.33
2019-02-21T22:48:15.140Z,16.07
2019-02-21T22:50:44.638Z,16.10
2019-02-21T22:53:14.168Z,16.67
2019-02-21T22:55:43.663Z,16.80
2019-02-21T22:58:13.168Z,16.07
2019-02-21T23:00:55.829Z,16.37
2019-02-21T23:03:53.310Z,16.73
2019-02-21T23:06:56.172Z,16.40
2019-02-21T23:09:27.999Z,16.37
2019-02-21T23:11:57.257Z,16.03
2019-02-21T23:14:26.691Z,17.20
2019-02-21T23:16:56.146Z,17.63
2019-02-21T23:19:25.640Z,16.90
2019-02-21T23:21:55.048Z,17.27
2019-02-21T23:24:24.547Z,18.23
2019-02-21T23:26:54.019Z,17.27
2019-02-21T23:29:23.454Z,17.00
2019-02-21T23:31:52.939Z,18.10
2019-02-21T23:34:26.677Z,17.10
2019-02-21T23:36:56.123Z,17.73
2019-02-21T23:39:25.561Z,17.30
2019-02-21T23:41:55.203Z,17.53
2019-02-21T23:44:24.643Z,18.00
2019-02-21T23:46:54.371Z,16.97
2019-02-21T23:49:23.818Z,17.37
2019-02-21T23:51:53.306Z,16.77
2019-02-21T23:54:22.748Z,17.63
2019-02-21T23:56:52.219Z,16.83
2019-02-21T23:59:21.655Z,17.83
